sensor_id;sensor_type;location;lat;lon;timestamp;P1;durP1;ratioP1;P2;durP2;ratioP2
79412;SDS011;68863;49.528;11.010;2023-03-31T00:00:36;6.30;;;0.60;;
79412;SDS011;68863;49.528;11.010;2023-03-31T00:01:36;3.70;;;0.73;;
79412;SDS011;68863;49.528;11.010;2023-03-31T00:02:40;5.18;;;0.80;;
79412;SDS011;68863;49.528;11.010;2023-03-31T00:03:41;3.17;;;0.60;;
79412;SDS011;68863;49.528;11.010;2023-03-31T00:04:42;5.80;;;0.82;;
79412;SDS011;68863;49.528;11.010;2023-03-31T00:07:58;3.27;;;0.60;;
79412;SDS011;68863;49.528;11.010;2023-03-31T00:09:00;3.92;;;0.68;;
79412;SDS011;68863;49.528;11.010;2023-03-31T00:10:00;4.43;;;0.70;;
79412;SDS011;68863;49.528;11.010;2023-03-31T00:11:02;4.90;;;0.63;;
79412;SDS011;68863;49.528;11.010;2023-03-31T00:12:04;3.38;;;0.95;;
79412;SDS011;68863;49.528;11.010;2023-03-31T00:13:04;3.42;;;0.88;;
79412;SDS011;68863;49.528;11.010;2023-03-31T00:14:05;4.10;;;0.77;;
79412;SDS011;68863;49.528;11.010;2023-03-31T00:15:06;5.25;;;0.63;;
79412;SDS011;68863;49.528;11.010;2023-03-31T00:16:07;6.60;;;0.82;;
79412;SDS011;68863;49.528;11.010;2023-03-31T00:17:09;4.10;;;0.77;;
79412;SDS011;68863;49.528;11.010;2023-03-31T00:18:10;3.35;;;0.60;;
79412;SDS011;68863;49.528;11.010;2023-03-31T00:19:11;8.57;;;0.80;;
79412;SDS011;68863;49.528;11.010;2023-03-31T00:20:17;4.95;;;0.85;;
79412;SDS011;68863;49.528;11.010;2023-03-31T00:21:18;5.13;;;0.60;;
79412;SDS011;68863;49.528;11.010;2023-03-31T00:22:23;4.78;;;1.00;;
79412;SDS011;68863;49.528;11.010;2023-03-31T00:23:26;4.43;;;0.77;;
79412;SDS011;68863;49.528;11.010;2023-03-31T00:24:27;4.40;;;0.70;;
79412;SDS011;68863;49.528;11.010;2023-03-31T00:25:31;4.43;;;0.70;;
79412;SDS011;68863;49.528;11.010;2023-03-31T00:26:32;4.63;;;0.80;;
79412;SDS011;68863;49.528;11.010;2023-03-31T00:28:34;2.50;;;0.50;;
79412;SDS011;68863;49.528;11.010;2023-03-31T00:29:35;2.28;;;0.40;;
79412;SDS011;68863;49.528;11.010;2023-03-31T00:30:35;3.63;;;0.60;;
79412;SDS011;68863;49.528;11.010;2023-03-31T00:31:35;5.10;;;0.50;;
79412;SDS011;68863;49.528;11.010;2023-03-31T00:32:37;3.83;;;0.70;;
79412;SDS011;68863;49.528;11.010;2023-03-31T00:33:38;6.53;;;1.00;;
79412;SDS011;68863;49.528;11.010;2023-03-31T00:34:38;5.40;;;1.07;;
79412;SDS011;68863;49.528;11.010;2023-03-31T00:35:39;5.53;;;1.77;;
79412;SDS011;68863;49.528;11.010;2023-03-31T00:36:40;7.97;;;2.70;;
79412;SDS011;68863;49.528;11.010;2023-03-31T00:37:46;7.82;;;3.53;;
79412;SDS011;68863;49.528;11.010;2023-03-31T00:38:47;8.40;;;3.70;;
79412;SDS011;68863;49.528;11.010;2023-03-31T00:39:47;6.22;;;3.10;;
79412;SDS011;68863;49.528;11.010;2023-03-31T00:40:47;6.57;;;3.80;;
79412;SDS011;68863;49.528;11.010;2023-03-31T00:41:48;6.93;;;3.87;;
79412;SDS011;68863;49.528;11.010;2023-03-31T00:42:48;7.38;;;4.32;;
79412;SDS011;68863;49.528;11.010;2023-03-31T00:43:59;8.20;;;4.30;;
79412;SDS011;68863;49.528;11.010;2023-03-31T00:46:22;10.10;;;5.88;;
79412;SDS011;68863;49.528;11.010;2023-03-31T00:48:29;7.20;;;3.37;;
79412;SDS011;68863;49.528;11.010;2023-03-31T00:49:35;7.28;;;3.00;;
79412;SDS011;68863;49.528;11.010;2023-03-31T00:51:50;6.05;;;1.80;;
79412;SDS011;68863;49.528;11.010;2023-03-31T00:53:05;4.63;;;1.20;;
79412;SDS011;68863;49.528;11.010;2023-03-31T00:54:10;3.88;;;1.10;;
79412;SDS011;68863;49.528;11.010;2023-03-31T00:55:15;3.92;;;0.90;;
79412;SDS011;68863;49.528;11.010;2023-03-31T00:56:21;5.07;;;0.82;;
79412;SDS011;68863;49.528;11.010;2023-03-31T00:57:22;2.88;;;0.60;;
79412;SDS011;68863;49.528;11.010;2023-03-31T00:58:27;4.35;;;0.70;;
79412;SDS011;68863;49.528;11.010;2023-03-31T00:59:29;3.97;;;0.93;;
79412;SDS011;68863;49.528;11.010;2023-03-31T01:00:30;4.57;;;0.68;;
79412;SDS011;68863;49.528;11.010;2023-03-31T01:01:31;5.55;;;0.93;;
79412;SDS011;68863;49.528;11.010;2023-03-31T01:02:31;4.57;;;0.97;;
79412;SDS011;68863;49.528;11.010;2023-03-31T01:03:32;4.68;;;0.70;;
79412;SDS011;68863;49.528;11.010;2023-03-31T01:04:43;5.70;;;1.17;;
79412;SDS011;68863;49.528;11.010;2023-03-31T01:05:55;5.65;;;0.88;;
79412;SDS011;68863;49.528;11.010;2023-03-31T01:07:01;5.03;;;0.70;;
79412;SDS011;68863;49.528;11.010;2023-03-31T01:08:08;3.67;;;0.68;;
79412;SDS011;68863;49.528;11.010;2023-03-31T01:09:09;5.20;;;0.60;;
79412;SDS011;68863;49.528;11.010;2023-03-31T01:10:10;4.45;;;0.70;;
79412;SDS011;68863;49.528;11.010;2023-03-31T01:11:12;3.85;;;0.50;;
79412;SDS011;68863;49.528;11.010;2023-03-31T01:12:15;3.17;;;0.65;;
79412;SDS011;68863;49.528;11.010;2023-03-31T01:13:18;3.42;;;0.60;;
79412;SDS011;68863;49.528;11.010;2023-03-31T01:14:20;2.83;;;0.60;;
79412;SDS011;68863;49.528;11.010;2023-03-31T01:15:20;5.50;;;0.70;;
79412;SDS011;68863;49.528;11.010;2023-03-31T01:16:21;4.80;;;0.90;;
79412;SDS011;68863;49.528;11.010;2023-03-31T01:17:22;4.28;;;0.90;;
79412;SDS011;68863;49.528;11.010;2023-03-31T01:18:23;3.08;;;0.63;;
79412;SDS011;68863;49.528;11.010;2023-03-31T01:19:29;4.80;;;0.60;;
79412;SDS011;68863;49.528;11.010;2023-03-31T01:21:54;6.57;;;0.93;;
79412;SDS011;68863;49.528;11.010;2023-03-31T01:29:12;4.32;;;0.73;;
79412;SDS011;68863;49.528;11.010;2023-03-31T01:41:22;4.07;;;1.05;;
79412;SDS011;68863;49.528;11.010;2023-03-31T01:42:56;4.18;;;0.80;;
79412;SDS011;68863;49.528;11.010;2023-03-31T01:45:53;6.22;;;0.82;;
79412;SDS011;68863;49.528;11.010;2023-03-31T01:47:19;4.30;;;0.80;;
79412;SDS011;68863;49.528;11.010;2023-03-31T01:48:43;3.95;;;1.05;;
79412;SDS011;68863;49.528;11.010;2023-03-31T01:49:57;3.22;;;0.82;;
79412;SDS011;68863;49.528;11.010;2023-03-31T01:52:35;8.30;;;1.00;;
79412;SDS011;68863;49.528;11.010;2023-03-31T01:55:06;7.28;;;1.08;;
79412;SDS011;68863;49.528;11.010;2023-03-31T01:57:29;5.13;;;0.80;;
79412;SDS011;68863;49.528;11.010;2023-03-31T01:58:35;5.43;;;0.80;;
79412;SDS011;68863;49.528;11.010;2023-03-31T02:00:01;5.47;;;0.80;;
79412;SDS011;68863;49.528;11.010;2023-03-31T02:01:14;4.15;;;0.70;;
79412;SDS011;68863;49.528;11.010;2023-03-31T02:03:51;5.38;;;0.90;;
79412;SDS011;68863;49.528;11.010;2023-03-31T02:04:56;5.05;;;0.88;;
79412;SDS011;68863;49.528;11.010;2023-03-31T02:06:11;4.63;;;1.15;;
79412;SDS011;68863;49.528;11.010;2023-03-31T02:07:18;4.07;;;0.80;;
79412;SDS011;68863;49.528;11.010;2023-03-31T02:08:28;4.05;;;0.63;;
79412;SDS011;68863;49.528;11.010;2023-03-31T02:09:34;5.32;;;0.80;;
79412;SDS011;68863;49.528;11.010;2023-03-31T02:10:40;5.30;;;0.70;;
79412;SDS011;68863;49.528;11.010;2023-03-31T02:11:42;6.00;;;1.00;;
79412;SDS011;68863;49.528;11.010;2023-03-31T02:13:46;3.80;;;0.90;;
79412;SDS011;68863;49.528;11.010;2023-03-31T02:14:49;3.85;;;0.70;;
79412;SDS011;68863;49.528;11.010;2023-03-31T02:15:54;5.35;;;0.90;;
79412;SDS011;68863;49.528;11.010;2023-03-31T02:16:58;5.30;;;1.10;;
79412;SDS011;68863;49.528;11.010;2023-03-31T02:18:01;5.75;;;1.17;;
79412;SDS011;68863;49.528;11.010;2023-03-31T02:19:09;5.75;;;1.17;;
79412;SDS011;68863;49.528;11.010;2023-03-31T02:20:13;3.63;;;0.93;;
79412;SDS011;68863;49.528;11.010;2023-03-31T02:21:16;4.38;;;1.17;;
79412;SDS011;68863;49.528;11.010;2023-03-31T02:22:17;5.10;;;1.38;;
79412;SDS011;68863;49.528;11.010;2023-03-31T02:23:22;4.93;;;1.13;;
79412;SDS011;68863;49.528;11.010;2023-03-31T02:24:25;5.25;;;0.90;;
79412;SDS011;68863;49.528;11.010;2023-03-31T02:25:31;4.13;;;0.95;;
79412;SDS011;68863;49.528;11.010;2023-03-31T02:26:36;4.72;;;1.00;;
79412;SDS011;68863;49.528;11.010;2023-03-31T02:27:41;5.97;;;1.30;;
79412;SDS011;68863;49.528;11.010;2023-03-31T02:28:45;4.03;;;1.10;;
79412;SDS011;68863;49.528;11.010;2023-03-31T02:29:46;4.53;;;1.00;;
79412;SDS011;68863;49.528;11.010;2023-03-31T02:30:49;4.65;;;0.70;;
79412;SDS011;68863;49.528;11.010;2023-03-31T02:32:03;3.97;;;1.08;;
79412;SDS011;68863;49.528;11.010;2023-03-31T02:33:15;4.75;;;1.00;;
79412;SDS011;68863;49.528;11.010;2023-03-31T02:34:16;5.18;;;0.70;;
79412;SDS011;68863;49.528;11.010;2023-03-31T02:35:18;5.18;;;0.90;;
79412;SDS011;68863;49.528;11.010;2023-03-31T02:36:20;3.95;;;0.93;;
79412;SDS011;68863;49.528;11.010;2023-03-31T02:37:21;4.15;;;0.70;;
79412;SDS011;68863;49.528;11.010;2023-03-31T02:38:21;4.88;;;0.77;;
79412;SDS011;68863;49.528;11.010;2023-03-31T02:39:25;4.97;;;0.80;;
79412;SDS011;68863;49.528;11.010;2023-03-31T02:40:29;4.53;;;0.63;;
79412;SDS011;68863;49.528;11.010;2023-03-31T02:41:30;4.03;;;0.88;;
79412;SDS011;68863;49.528;11.010;2023-03-31T02:42:31;5.07;;;0.73;;
79412;SDS011;68863;49.528;11.010;2023-03-31T02:43:31;4.20;;;0.73;;
79412;SDS011;68863;49.528;11.010;2023-03-31T02:44:32;5.78;;;1.10;;
79412;SDS011;68863;49.528;11.010;2023-03-31T02:46:39;4.82;;;0.93;;
79412;SDS011;68863;49.528;11.010;2023-03-31T02:47:40;4.70;;;0.90;;
79412;SDS011;68863;49.528;11.010;2023-03-31T02:48:41;4.30;;;0.80;;
79412;SDS011;68863;49.528;11.010;2023-03-31T02:49:52;5.68;;;0.90;;
79412;SDS011;68863;49.528;11.010;2023-03-31T02:52:30;5.57;;;0.90;;
79412;SDS011;68863;49.528;11.010;2023-03-31T02:57:56;3.83;;;0.85;;
79412;SDS011;68863;49.528;11.010;2023-03-31T03:02:08;6.72;;;1.00;;
79412;SDS011;68863;49.528;11.010;2023-03-31T03:04:49;4.93;;;0.93;;
79412;SDS011;68863;49.528;11.010;2023-03-31T03:06:12;6.13;;;0.90;;
79412;SDS011;68863;49.528;11.010;2023-03-31T03:10:18;6.72;;;1.77;;
79412;SDS011;68863;49.528;11.010;2023-03-31T03:11:26;7.18;;;2.20;;
79412;SDS011;68863;49.528;11.010;2023-03-31T03:12:39;5.97;;;1.88;;
79412;SDS011;68863;49.528;11.010;2023-03-31T03:13:51;7.03;;;1.95;;
79412;SDS011;68863;49.528;11.010;2023-03-31T03:16:17;6.25;;;1.27;;
79412;SDS011;68863;49.528;11.010;2023-03-31T03:17:27;3.45;;;1.02;;
79412;SDS011;68863;49.528;11.010;2023-03-31T03:18:31;5.90;;;0.80;;
79412;SDS011;68863;49.528;11.010;2023-03-31T03:19:31;4.90;;;0.70;;
79412;SDS011;68863;49.528;11.010;2023-03-31T03:20:31;4.57;;;0.85;;
79412;SDS011;68863;49.528;11.010;2023-03-31T03:21:35;7.32;;;1.15;;
79412;SDS011;68863;49.528;11.010;2023-03-31T03:22:36;5.37;;;0.80;;
79412;SDS011;68863;49.528;11.010;2023-03-31T03:23:37;3.75;;;0.88;;
79412;SDS011;68863;49.528;11.010;2023-03-31T03:24:37;3.50;;;0.90;;
79412;SDS011;68863;49.528;11.010;2023-03-31T03:25:38;4.18;;;0.80;;
79412;SDS011;68863;49.528;11.010;2023-03-31T03:26:39;4.82;;;0.80;;
79412;SDS011;68863;49.528;11.010;2023-03-31T03:27:39;5.87;;;0.93;;
79412;SDS011;68863;49.528;11.010;2023-03-31T03:28:39;4.78;;;1.00;;
79412;SDS011;68863;49.528;11.010;2023-03-31T03:29:40;6.82;;;0.95;;
79412;SDS011;68863;49.528;11.010;2023-03-31T03:30:40;4.93;;;1.30;;
79412;SDS011;68863;49.528;11.010;2023-03-31T03:31:41;4.90;;;1.00;;
79412;SDS011;68863;49.528;11.010;2023-03-31T03:32:41;4.38;;;1.30;;
79412;SDS011;68863;49.528;11.010;2023-03-31T03:33:42;6.25;;;1.45;;
79412;SDS011;68863;49.528;11.010;2023-03-31T03:34:42;4.88;;;0.80;;
79412;SDS011;68863;49.528;11.010;2023-03-31T03:35:43;4.75;;;1.42;;
79412;SDS011;68863;49.528;11.010;2023-03-31T03:36:43;6.68;;;1.10;;
79412;SDS011;68863;49.528;11.010;2023-03-31T03:37:43;4.50;;;1.10;;
79412;SDS011;68863;49.528;11.010;2023-03-31T03:38:43;4.93;;;1.02;;
79412;SDS011;68863;49.528;11.010;2023-03-31T03:39:44;5.40;;;1.30;;
79412;SDS011;68863;49.528;11.010;2023-03-31T03:40:44;4.38;;;0.80;;
79412;SDS011;68863;49.528;11.010;2023-03-31T03:41:45;5.05;;;1.00;;
79412;SDS011;68863;49.528;11.010;2023-03-31T03:42:45;8.15;;;1.00;;
79412;SDS011;68863;49.528;11.010;2023-03-31T03:43:46;4.47;;;0.88;;
79412;SDS011;68863;49.528;11.010;2023-03-31T03:44:46;5.17;;;1.00;;
79412;SDS011;68863;49.528;11.010;2023-03-31T03:45:47;4.97;;;0.83;;
79412;SDS011;68863;49.528;11.010;2023-03-31T03:46:48;3.60;;;0.85;;
79412;SDS011;68863;49.528;11.010;2023-03-31T03:47:48;6.47;;;1.00;;
79412;SDS011;68863;49.528;11.010;2023-03-31T03:48:48;6.03;;;1.33;;
79412;SDS011;68863;49.528;11.010;2023-03-31T03:49:49;4.70;;;0.90;;
79412;SDS011;68863;49.528;11.010;2023-03-31T03:50:49;5.22;;;1.00;;
79412;SDS011;68863;49.528;11.010;2023-03-31T03:51:51;4.78;;;1.02;;
79412;SDS011;68863;49.528;11.010;2023-03-31T03:52:51;6.18;;;1.10;;
79412;SDS011;68863;49.528;11.010;2023-03-31T03:53:52;5.75;;;1.08;;
79412;SDS011;68863;49.528;11.010;2023-03-31T03:54:52;5.43;;;1.07;;
79412;SDS011;68863;49.528;11.010;2023-03-31T03:55:52;4.63;;;0.80;;
79412;SDS011;68863;49.528;11.010;2023-03-31T03:56:53;4.50;;;0.85;;
79412;SDS011;68863;49.528;11.010;2023-03-31T03:57:53;4.78;;;0.77;;
79412;SDS011;68863;49.528;11.010;2023-03-31T03:58:53;6.10;;;1.03;;
79412;SDS011;68863;49.528;11.010;2023-03-31T03:59:53;4.43;;;1.03;;
79412;SDS011;68863;49.528;11.010;2023-03-31T04:00:53;5.93;;;1.43;;
79412;SDS011;68863;49.528;11.010;2023-03-31T04:01:55;4.10;;;0.85;;
79412;SDS011;68863;49.528;11.010;2023-03-31T04:02:56;6.10;;;1.40;;
79412;SDS011;68863;49.528;11.010;2023-03-31T04:03:56;4.47;;;0.90;;
79412;SDS011;68863;49.528;11.010;2023-03-31T04:04:56;6.37;;;0.80;;
79412;SDS011;68863;49.528;11.010;2023-03-31T04:05:57;5.10;;;1.20;;
79412;SDS011;68863;49.528;11.010;2023-03-31T04:06:57;6.83;;;0.80;;
79412;SDS011;68863;49.528;11.010;2023-03-31T04:07:57;4.67;;;0.77;;
79412;SDS011;68863;49.528;11.010;2023-03-31T04:08:57;6.60;;;0.80;;
79412;SDS011;68863;49.528;11.010;2023-03-31T04:09:58;3.90;;;0.77;;
79412;SDS011;68863;49.528;11.010;2023-03-31T04:10:58;4.80;;;0.60;;
79412;SDS011;68863;49.528;11.010;2023-03-31T04:11:58;8.63;;;0.85;;
79412;SDS011;68863;49.528;11.010;2023-03-31T04:12:59;5.70;;;0.70;;
79412;SDS011;68863;49.528;11.010;2023-03-31T04:14:00;5.40;;;0.60;;
79412;SDS011;68863;49.528;11.010;2023-03-31T04:15:00;3.85;;;0.80;;
79412;SDS011;68863;49.528;11.010;2023-03-31T04:16:01;3.45;;;0.70;;
79412;SDS011;68863;49.528;11.010;2023-03-31T04:17:01;4.43;;;0.80;;
79412;SDS011;68863;49.528;11.010;2023-03-31T04:18:02;3.05;;;0.70;;
79412;SDS011;68863;49.528;11.010;2023-03-31T04:19:02;4.50;;;0.63;;
79412;SDS011;68863;49.528;11.010;2023-03-31T04:20:04;4.97;;;0.60;;
79412;SDS011;68863;49.528;11.010;2023-03-31T04:21:09;4.68;;;0.80;;
79412;SDS011;68863;49.528;11.010;2023-03-31T04:23:14;6.53;;;0.70;;
79412;SDS011;68863;49.528;11.010;2023-03-31T04:24:14;4.80;;;0.70;;
79412;SDS011;68863;49.528;11.010;2023-03-31T04:25:20;7.55;;;0.93;;
79412;SDS011;68863;49.528;11.010;2023-03-31T04:26:21;6.05;;;0.68;;
79412;SDS011;68863;49.528;11.010;2023-03-31T04:27:30;4.57;;;0.80;;
79412;SDS011;68863;49.528;11.010;2023-03-31T04:28:31;4.50;;;0.70;;
79412;SDS011;68863;49.528;11.010;2023-03-31T04:29:33;7.95;;;0.85;;
79412;SDS011;68863;49.528;11.010;2023-03-31T04:30:36;6.03;;;1.20;;
79412;SDS011;68863;49.528;11.010;2023-03-31T04:31:39;5.88;;;0.85;;
79412;SDS011;68863;49.528;11.010;2023-03-31T04:32:42;3.83;;;0.88;;
79412;SDS011;68863;49.528;11.010;2023-03-31T04:33:43;3.33;;;0.80;;
79412;SDS011;68863;49.528;11.010;2023-03-31T04:34:45;6.25;;;1.00;;
79412;SDS011;68863;49.528;11.010;2023-03-31T04:35:45;5.25;;;1.20;;
79412;SDS011;68863;49.528;11.010;2023-03-31T04:36:49;3.13;;;0.60;;
79412;SDS011;68863;49.528;11.010;2023-03-31T04:37:49;4.43;;;1.07;;
79412;SDS011;68863;49.528;11.010;2023-03-31T04:38:57;5.05;;;1.17;;
79412;SDS011;68863;49.528;11.010;2023-03-31T04:40:01;3.38;;;0.57;;
79412;SDS011;68863;49.528;11.010;2023-03-31T04:41:08;3.33;;;0.60;;
79412;SDS011;68863;49.528;11.010;2023-03-31T04:42:08;5.20;;;0.90;;
79412;SDS011;68863;49.528;11.010;2023-03-31T04:43:09;5.03;;;1.00;;
79412;SDS011;68863;49.528;11.010;2023-03-31T04:44:09;3.90;;;0.57;;
79412;SDS011;68863;49.528;11.010;2023-03-31T04:45:10;5.63;;;1.00;;
79412;SDS011;68863;49.528;11.010;2023-03-31T04:46:11;4.88;;;0.70;;
79412;SDS011;68863;49.528;11.010;2023-03-31T04:47:11;3.80;;;0.60;;
79412;SDS011;68863;49.528;11.010;2023-03-31T04:48:11;5.97;;;0.77;;
79412;SDS011;68863;49.528;11.010;2023-03-31T04:49:12;4.68;;;0.70;;
79412;SDS011;68863;49.528;11.010;2023-03-31T04:50:12;5.03;;;0.70;;
79412;SDS011;68863;49.528;11.010;2023-03-31T04:51:13;3.30;;;0.52;;
79412;SDS011;68863;49.528;11.010;2023-03-31T04:52:15;5.07;;;0.98;;
79412;SDS011;68863;49.528;11.010;2023-03-31T04:53:15;5.03;;;0.70;;
79412;SDS011;68863;49.528;11.010;2023-03-31T04:54:15;4.20;;;0.70;;
79412;SDS011;68863;49.528;11.010;2023-03-31T04:55:16;4.68;;;0.93;;
79412;SDS011;68863;49.528;11.010;2023-03-31T04:56:16;5.93;;;0.80;;
79412;SDS011;68863;49.528;11.010;2023-03-31T04:57:16;6.03;;;0.70;;
79412;SDS011;68863;49.528;11.010;2023-03-31T04:58:16;4.00;;;0.65;;
79412;SDS011;68863;49.528;11.010;2023-03-31T04:59:17;4.20;;;0.80;;
79412;SDS011;68863;49.528;11.010;2023-03-31T05:00:17;5.47;;;0.83;;
79412;SDS011;68863;49.528;11.010;2023-03-31T05:01:18;4.53;;;0.85;;
79412;SDS011;68863;49.528;11.010;2023-03-31T05:02:18;3.35;;;0.60;;
79412;SDS011;68863;49.528;11.010;2023-03-31T05:03:25;5.90;;;0.77;;
79412;SDS011;68863;49.528;11.010;2023-03-31T05:04:25;4.13;;;0.93;;
79412;SDS011;68863;49.528;11.010;2023-03-31T05:05:25;3.60;;;0.97;;
79412;SDS011;68863;49.528;11.010;2023-03-31T05:06:26;4.82;;;0.93;;
79412;SDS011;68863;49.528;11.010;2023-03-31T05:07:26;5.90;;;1.25;;
79412;SDS011;68863;49.528;11.010;2023-03-31T05:08:26;5.97;;;1.20;;
79412;SDS011;68863;49.528;11.010;2023-03-31T05:09:26;5.93;;;1.13;;
79412;SDS011;68863;49.528;11.010;2023-03-31T05:10:27;8.25;;;1.42;;
79412;SDS011;68863;49.528;11.010;2023-03-31T05:11:28;4.18;;;0.93;;
79412;SDS011;68863;49.528;11.010;2023-03-31T05:12:28;5.88;;;0.80;;
79412;SDS011;68863;49.528;11.010;2023-03-31T05:13:32;5.45;;;0.93;;
79412;SDS011;68863;49.528;11.010;2023-03-31T05:14:32;4.18;;;0.75;;
79412;SDS011;68863;49.528;11.010;2023-03-31T05:15:33;6.23;;;0.87;;
79412;SDS011;68863;49.528;11.010;2023-03-31T05:16:36;4.28;;;0.80;;
79412;SDS011;68863;49.528;11.010;2023-03-31T05:17:37;8.20;;;1.20;;
79412;SDS011;68863;49.528;11.010;2023-03-31T05:18:37;4.75;;;0.85;;
79412;SDS011;68863;49.528;11.010;2023-03-31T05:19:37;4.57;;;0.80;;
79412;SDS011;68863;49.528;11.010;2023-03-31T05:20:37;8.40;;;1.00;;
79412;SDS011;68863;49.528;11.010;2023-03-31T05:21:38;5.25;;;1.02;;
79412;SDS011;68863;49.528;11.010;2023-03-31T05:22:38;5.22;;;1.13;;
79412;SDS011;68863;49.528;11.010;2023-03-31T05:23:39;6.85;;;1.20;;
79412;SDS011;68863;49.528;11.010;2023-03-31T05:24:40;8.40;;;1.50;;
79412;SDS011;68863;49.528;11.010;2023-03-31T05:25:40;4.13;;;1.07;;
79412;SDS011;68863;49.528;11.010;2023-03-31T05:26:41;8.95;;;1.38;;
79412;SDS011;68863;49.528;11.010;2023-03-31T05:27:47;6.38;;;1.52;;
79412;SDS011;68863;49.528;11.010;2023-03-31T05:28:47;5.82;;;1.45;;
79412;SDS011;68863;49.528;11.010;2023-03-31T05:29:47;6.63;;;1.80;;
79412;SDS011;68863;49.528;11.010;2023-03-31T05:30:48;7.80;;;1.50;;
79412;SDS011;68863;49.528;11.010;2023-03-31T05:31:48;5.85;;;1.50;;
79412;SDS011;68863;49.528;11.010;2023-03-31T05:32:48;5.85;;;1.23;;
79412;SDS011;68863;49.528;11.010;2023-03-31T05:33:49;5.43;;;1.30;;
79412;SDS011;68863;49.528;11.010;2023-03-31T05:34:49;7.43;;;1.38;;
79412;SDS011;68863;49.528;11.010;2023-03-31T05:35:51;8.25;;;1.45;;
79412;SDS011;68863;49.528;11.010;2023-03-31T05:36:51;6.37;;;1.50;;
79412;SDS011;68863;49.528;11.010;2023-03-31T05:37:52;8.40;;;1.95;;
79412;SDS011;68863;49.528;11.010;2023-03-31T05:38:53;9.32;;;1.63;;
79412;SDS011;68863;49.528;11.010;2023-03-31T05:39:53;6.88;;;1.80;;
79412;SDS011;68863;49.528;11.010;2023-03-31T05:40:54;10.73;;;1.85;;
79412;SDS011;68863;49.528;11.010;2023-03-31T05:41:54;6.05;;;1.38;;
79412;SDS011;68863;49.528;11.010;2023-03-31T05:42:55;6.93;;;1.90;;
79412;SDS011;68863;49.528;11.010;2023-03-31T05:43:55;5.57;;;1.60;;
79412;SDS011;68863;49.528;11.010;2023-03-31T05:44:55;8.68;;;1.80;;
79412;SDS011;68863;49.528;11.010;2023-03-31T05:45:56;8.38;;;2.20;;
79412;SDS011;68863;49.528;11.010;2023-03-31T05:46:56;8.27;;;1.80;;
79412;SDS011;68863;49.528;11.010;2023-03-31T05:47:56;7.53;;;1.67;;
79412;SDS011;68863;49.528;11.010;2023-03-31T05:48:57;10.00;;;3.03;;
79412;SDS011;68863;49.528;11.010;2023-03-31T05:49:57;11.93;;;4.35;;
79412;SDS011;68863;49.528;11.010;2023-03-31T05:51:01;9.25;;;3.20;;
79412;SDS011;68863;49.528;11.010;2023-03-31T05:52:01;8.68;;;2.67;;
79412;SDS011;68863;49.528;11.010;2023-03-31T05:53:01;7.77;;;2.30;;
79412;SDS011;68863;49.528;11.010;2023-03-31T05:54:01;7.65;;;1.98;;
79412;SDS011;68863;49.528;11.010;2023-03-31T05:55:02;7.70;;;1.80;;
79412;SDS011;68863;49.528;11.010;2023-03-31T05:56:04;8.07;;;1.63;;
79412;SDS011;68863;49.528;11.010;2023-03-31T05:57:08;6.40;;;1.33;;
79412;SDS011;68863;49.528;11.010;2023-03-31T05:58:09;9.65;;;1.63;;
79412;SDS011;68863;49.528;11.010;2023-03-31T05:59:09;6.07;;;1.63;;
79412;SDS011;68863;49.528;11.010;2023-03-31T06:00:10;7.35;;;1.55;;
79412;SDS011;68863;49.528;11.010;2023-03-31T06:01:12;7.25;;;1.90;;
79412;SDS011;68863;49.528;11.010;2023-03-31T06:02:18;7.82;;;1.50;;
79412;SDS011;68863;49.528;11.010;2023-03-31T06:03:18;5.83;;;1.37;;
79412;SDS011;68863;49.528;11.010;2023-03-31T06:04:18;5.80;;;1.40;;
79412;SDS011;68863;49.528;11.010;2023-03-31T06:05:19;5.07;;;1.30;;
79412;SDS011;68863;49.528;11.010;2023-03-31T06:06:19;8.50;;;1.92;;
79412;SDS011;68863;49.528;11.010;2023-03-31T06:07:22;4.78;;;1.13;;
79412;SDS011;68863;49.528;11.010;2023-03-31T06:08:23;6.45;;;1.35;;
79412;SDS011;68863;49.528;11.010;2023-03-31T06:09:24;5.57;;;1.15;;
79412;SDS011;68863;49.528;11.010;2023-03-31T06:10:25;4.38;;;1.50;;
79412;SDS011;68863;49.528;11.010;2023-03-31T06:11:25;7.33;;;1.90;;
79412;SDS011;68863;49.528;11.010;2023-03-31T06:12:26;6.53;;;1.60;;
79412;SDS011;68863;49.528;11.010;2023-03-31T06:13:26;4.85;;;1.60;;
79412;SDS011;68863;49.528;11.010;2023-03-31T06:14:26;6.03;;;1.47;;
79412;SDS011;68863;49.528;11.010;2023-03-31T06:15:27;7.40;;;1.17;;
79412;SDS011;68863;49.528;11.010;2023-03-31T06:16:27;6.65;;;1.13;;
79412;SDS011;68863;49.528;11.010;2023-03-31T06:17:28;6.57;;;1.13;;
79412;SDS011;68863;49.528;11.010;2023-03-31T06:18:29;4.27;;;1.00;;
79412;SDS011;68863;49.528;11.010;2023-03-31T06:19:30;6.88;;;1.20;;
79412;SDS011;68863;49.528;11.010;2023-03-31T06:20:31;5.47;;;1.40;;
79412;SDS011;68863;49.528;11.010;2023-03-31T06:21:31;5.90;;;1.50;;
79412;SDS011;68863;49.528;11.010;2023-03-31T06:22:31;5.07;;;1.40;;
79412;SDS011;68863;49.528;11.010;2023-03-31T06:23:32;6.03;;;1.10;;
79412;SDS011;68863;49.528;11.010;2023-03-31T06:24:32;5.68;;;1.58;;
79412;SDS011;68863;49.528;11.010;2023-03-31T06:25:32;7.33;;;1.23;;
79412;SDS011;68863;49.528;11.010;2023-03-31T06:26:33;6.13;;;1.10;;
79412;SDS011;68863;49.528;11.010;2023-03-31T06:27:33;5.82;;;1.17;;
79412;SDS011;68863;49.528;11.010;2023-03-31T06:28:34;5.40;;;1.20;;
79412;SDS011;68863;49.528;11.010;2023-03-31T06:29:35;6.05;;;1.23;;
79412;SDS011;68863;49.528;11.010;2023-03-31T06:30:35;5.83;;;1.30;;
79412;SDS011;68863;49.528;11.010;2023-03-31T06:31:35;7.00;;;2.03;;
79412;SDS011;68863;49.528;11.010;2023-03-31T06:32:36;11.67;;;2.80;;
79412;SDS011;68863;49.528;11.010;2023-03-31T06:33:36;6.70;;;2.17;;
79412;SDS011;68863;49.528;11.010;2023-03-31T06:34:38;7.85;;;2.25;;
79412;SDS011;68863;49.528;11.010;2023-03-31T06:35:39;6.07;;;1.97;;
79412;SDS011;68863;49.528;11.010;2023-03-31T06:36:40;4.80;;;1.55;;
79412;SDS011;68863;49.528;11.010;2023-03-31T06:37:40;7.28;;;1.25;;
79412;SDS011;68863;49.528;11.010;2023-03-31T06:38:41;7.32;;;1.45;;
79412;SDS011;68863;49.528;11.010;2023-03-31T06:39:41;5.32;;;1.10;;
79412;SDS011;68863;49.528;11.010;2023-03-31T06:40:43;5.80;;;1.27;;
79412;SDS011;68863;49.528;11.010;2023-03-31T06:41:43;5.37;;;1.27;;
79412;SDS011;68863;49.528;11.010;2023-03-31T06:42:44;8.77;;;1.50;;
79412;SDS011;68863;49.528;11.010;2023-03-31T06:43:44;6.17;;;1.20;;
79412;SDS011;68863;49.528;11.010;2023-03-31T06:44:45;4.93;;;1.05;;
79412;SDS011;68863;49.528;11.010;2023-03-31T06:45:45;7.13;;;1.30;;
79412;SDS011;68863;49.528;11.010;2023-03-31T06:46:46;5.10;;;1.20;;
79412;SDS011;68863;49.528;11.010;2023-03-31T06:47:47;6.88;;;1.30;;
79412;SDS011;68863;49.528;11.010;2023-03-31T06:48:47;5.60;;;1.27;;
79412;SDS011;68863;49.528;11.010;2023-03-31T06:49:47;6.57;;;1.43;;
79412;SDS011;68863;49.528;11.010;2023-03-31T06:50:47;6.77;;;1.17;;
79412;SDS011;68863;49.528;11.010;2023-03-31T06:51:48;5.60;;;1.58;;
79412;SDS011;68863;49.528;11.010;2023-03-31T06:52:48;6.10;;;1.40;;
79412;SDS011;68863;49.528;11.010;2023-03-31T06:53:51;4.07;;;1.15;;
79412;SDS011;68863;49.528;11.010;2023-03-31T06:54:51;6.43;;;1.10;;
79412;SDS011;68863;49.528;11.010;2023-03-31T06:55:52;8.27;;;1.47;;
79412;SDS011;68863;49.528;11.010;2023-03-31T06:56:52;7.27;;;1.40;;
79412;SDS011;68863;49.528;11.010;2023-03-31T06:57:52;7.87;;;1.23;;
79412;SDS011;68863;49.528;11.010;2023-03-31T06:58:52;6.60;;;1.60;;
79412;SDS011;68863;49.528;11.010;2023-03-31T06:59:53;5.00;;;1.40;;
79412;SDS011;68863;49.528;11.010;2023-03-31T07:00:53;5.25;;;1.40;;